sensor_id;sensor_type;location;lat;lon;timestamp;pressure;altitude;pressure_sealevel;temperature;humidity
67738;BME280;54534;43.612;1.572;2023-03-21T00:02:04;99307.66;;;19.01;48.59
67738;BME280;54534;43.612;1.572;2023-03-21T00:04:30;99303.28;;;19.00;48.82
67738;BME280;54534;43.612;1.572;2023-03-21T00:06:55;99299.78;;;19.00;48.72
67738;BME280;54534;43.612;1.572;2023-03-21T00:09:21;99300.75;;;18.99;48.55
67738;BME280;54534;43.612;1.572;2023-03-21T00:11:47;99298.22;;;18.97;48.56
67738;BME280;54534;43.612;1.572;2023-03-21T00:14:13;99288.53;;;18.96;48.59
67738;BME280;54534;43.612;1.572;2023-03-21T00:16:43;99292.91;;;18.97;48.51
67738;BME280;54534;43.612;1.572;2023-03-21T00:19:10;99293.84;;;18.96;48.50
67738;BME280;54534;43.612;1.572;2023-03-21T00:21:36;99292.16;;;18.95;48.50
67738;BME280;54534;43.612;1.572;2023-03-21T00:24:03;99287.81;;;18.94;48.59
67738;BME280;54534;43.612;1.572;2023-03-21T00:26:29;99287.81;;;18.94;48.46
67738;BME280;54534;43.612;1.572;2023-03-21T00:28:54;99284.44;;;18.92;48.57
67738;BME280;54534;43.612;1.572;2023-03-21T00:31:20;99285.25;;;18.93;48.61
67738;BME280;54534;43.612;1.572;2023-03-21T00:33:45;99279.09;;;18.92;48.21
67738;BME280;54534;43.612;1.572;2023-03-21T00:36:11;99276.69;;;18.89;48.63
67738;BME280;54534;43.612;1.572;2023-03-21T00:38:37;99272.22;;;18.89;48.48
67738;BME280;54534;43.612;1.572;2023-03-21T00:41:04;99279.34;;;18.89;48.77
67738;BME280;54534;43.612;1.572;2023-03-21T00:43:30;99275.81;;;18.88;48.40
67738;BME280;54534;43.612;1.572;2023-03-21T00:45:57;99276.06;;;18.85;48.53
67738;BME280;54534;43.612;1.572;2023-03-21T00:48:23;99277.78;;;18.86;48.27
67738;BME280;54534;43.612;1.572;2023-03-21T00:50:51;99283.97;;;18.87;48.27
67738;BME280;54534;43.612;1.572;2023-03-21T00:53:17;99272.56;;;18.85;48.59
67738;BME280;54534;43.612;1.572;2023-03-21T00:55:43;99275.22;;;18.85;48.22
67738;BME280;54534;43.612;1.572;2023-03-21T00:58:08;99275.34;;;18.83;48.23
67738;BME280;54534;43.612;1.572;2023-03-21T01:00:34;99285.16;;;18.83;48.25
67738;BME280;54534;43.612;1.572;2023-03-21T01:03:02;99288.81;;;18.82;48.54
67738;BME280;54534;43.612;1.572;2023-03-21T01:05:32;99282.63;;;18.81;48.51
67738;BME280;54534;43.612;1.572;2023-03-21T01:08:17;99276.44;;;18.81;48.30
67738;BME280;54534;43.612;1.572;2023-03-21T01:10:45;99280.06;;;18.79;48.26
67738;BME280;54534;43.612;1.572;2023-03-21T01:13:14;99274.88;;;18.78;48.26
67738;BME280;54534;43.612;1.572;2023-03-21T01:15:47;99274.88;;;18.78;48.63
67738;BME280;54534;43.612;1.572;2023-03-21T01:18:14;99270.50;;;18.77;48.59
67738;BME280;54534;43.612;1.572;2023-03-21T01:20:41;99276.69;;;18.77;48.52
67738;BME280;54534;43.612;1.572;2023-03-21T01:23:08;99283.00;;;18.76;48.53
67738;BME280;54534;43.612;1.572;2023-03-21T01:25:33;99284.81;;;18.76;48.15
67738;BME280;54534;43.612;1.572;2023-03-21T01:27:59;99279.59;;;18.74;48.13
67738;BME280;54534;43.612;1.572;2023-03-21T01:30:24;99269.06;;;18.73;48.50
67738;BME280;54534;43.612;1.572;2023-03-21T01:32:50;99270.75;;;18.74;48.16
67738;BME280;54534;43.612;1.572;2023-03-21T01:35:16;99263.75;;;18.73;48.58
67738;BME280;54534;43.612;1.572;2023-03-21T01:37:41;99261.19;;;18.71;48.30
67738;BME280;54534;43.612;1.572;2023-03-21T01:40:10;99250.53;;;18.71;48.30
67738;BME280;54534;43.612;1.572;2023-03-21T01:42:37;99254.19;;;18.70;48.29
67738;BME280;54534;43.612;1.572;2023-03-21T01:45:57;99253.34;;;18.70;48.41
67738;BME280;54534;43.612;1.572;2023-03-21T01:47:50;99246.31;;;18.68;48.11
67738;BME280;54534;43.612;1.572;2023-03-21T01:50:16;99246.44;;;18.67;48.18
67738;BME280;54534;43.612;1.572;2023-03-21T01:52:46;99236.75;;;18.66;48.14
67738;BME280;54534;43.612;1.572;2023-03-21T01:55:14;99236.75;;;18.66;48.32
67738;BME280;54534;43.612;1.572;2023-03-21T01:57:50;99240.25;;;18.66;48.15
67738;BME280;54534;43.612;1.572;2023-03-21T02:00:19;99230.69;;;18.64;48.35
67738;BME280;54534;43.612;1.572;2023-03-21T02:02:49;99226.38;;;18.63;48.33
67738;BME280;54534;43.612;1.572;2023-03-21T02:05:20;99215.72;;;18.63;47.94
67738;BME280;54534;43.612;1.572;2023-03-21T02:07:47;99212.19;;;18.62;48.08
67738;BME280;54534;43.612;1.572;2023-03-21T02:10:15;99205.16;;;18.61;48.21
67738;BME280;54534;43.612;1.572;2023-03-21T02:12:41;99212.31;;;18.61;48.08
67738;BME280;54534;43.612;1.572;2023-03-21T02:15:07;99211.47;;;18.60;48.00
67738;BME280;54534;43.612;1.572;2023-03-21T02:17:51;99210.63;;;18.60;48.36
67738;BME280;54534;43.612;1.572;2023-03-21T02:25:55;99208.06;;;18.58;47.97
67738;BME280;54534;43.612;1.572;2023-03-21T02:28:45;99206.50;;;18.55;47.96
67738;BME280;54534;43.612;1.572;2023-03-21T02:34:21;99201.31;;;18.54;48.30
67738;BME280;54534;43.612;1.572;2023-03-21T02:36:57;99204.09;;;18.52;48.27
67738;BME280;54534;43.612;1.572;2023-03-21T02:42:06;99208.59;;;18.52;48.24
67738;BME280;54534;43.612;1.572;2023-03-21T02:47:25;99197.06;;;18.51;47.85
67738;BME280;54534;43.612;1.572;2023-03-21T02:52:25;99200.84;;;18.49;48.27
67738;BME280;54534;43.612;1.572;2023-03-21T02:54:52;99199.03;;;18.49;48.03
67738;BME280;54534;43.612;1.572;2023-03-21T02:57:18;99203.63;;;18.47;48.20
67738;BME280;54534;43.612;1.572;2023-03-21T02:59:47;99202.66;;;18.48;48.02
67738;BME280;54534;43.612;1.572;2023-03-21T03:02:15;99196.47;;;18.48;48.06
67738;BME280;54534;43.612;1.572;2023-03-21T03:04:41;99205.44;;;18.47;48.08
67738;BME280;54534;43.612;1.572;2023-03-21T03:25:50;99208.59;;;18.40;48.34
67738;BME280;54534;43.612;1.572;2023-03-21T03:28:22;99208.59;;;18.40;47.98
67738;BME280;54534;43.612;1.572;2023-03-21T03:30:49;99204.25;;;18.39;48.02
67738;BME280;54534;43.612;1.572;2023-03-21T03:33:16;99206.91;;;18.39;47.85
67738;BME280;54534;43.612;1.572;2023-03-21T03:35:48;99201.69;;;18.38;47.77
67738;BME280;54534;43.612;1.572;2023-03-21T03:38:14;99203.50;;;18.37;48.27
67738;BME280;54534;43.612;1.572;2023-03-21T03:40:43;99200.84;;;18.37;48.26
67738;BME280;54534;43.612;1.572;2023-03-21T03:43:16;99206.16;;;18.37;48.01
67738;BME280;54534;43.612;1.572;2023-03-21T03:45:46;99200.97;;;18.36;48.05
67738;BME280;54534;43.612;1.572;2023-03-21T03:48:32;99203.63;;;18.36;47.73
67738;BME280;54534;43.612;1.572;2023-03-21T03:51:05;99198.31;;;18.36;48.26
67738;BME280;54534;43.612;1.572;2023-03-21T03:53:36;99198.41;;;18.34;47.88
67738;BME280;54534;43.612;1.572;2023-03-21T03:56:03;99201.06;;;18.34;48.26
67738;BME280;54534;43.612;1.572;2023-03-21T03:58:29;99199.41;;;18.33;47.96
67738;BME280;54534;43.612;1.572;2023-03-21T04:00:56;99203.88;;;18.32;48.04
67738;BME280;54534;43.612;1.572;2023-03-21T04:03:22;99205.69;;;18.32;48.25
67738;BME280;54534;43.612;1.572;2023-03-21T04:05:47;99215.47;;;18.31;48.03
67738;BME280;54534;43.612;1.572;2023-03-21T04:08:13;99212.81;;;18.31;47.92
67738;BME280;54534;43.612;1.572;2023-03-21T04:10:40;99219.97;;;18.31;47.60
67738;BME280;54534;43.612;1.572;2023-03-21T04:13:06;99222.75;;;18.29;47.83
67738;BME280;54534;43.612;1.572;2023-03-21T04:15:32;99217.41;;;18.29;47.93
67738;BME280;54534;43.612;1.572;2023-03-21T04:17:57;99214.75;;;18.29;47.65
67738;BME280;54534;43.612;1.572;2023-03-21T04:20:23;99217.56;;;18.28;47.74
67738;BME280;54534;43.612;1.572;2023-03-21T04:22:49;99222.03;;;18.27;47.94
67738;BME280;54534;43.612;1.572;2023-03-21T04:25:15;99228.19;;;18.28;47.77
67738;BME280;54534;43.612;1.572;2023-03-21T04:27:41;99236.28;;;18.26;48.08
67738;BME280;54534;43.612;1.572;2023-03-21T04:30:07;99228.31;;;18.26;47.99
67738;BME280;54534;43.612;1.572;2023-03-21T04:32:33;99227.56;;;18.24;48.00
67738;BME280;54534;43.612;1.572;2023-03-21T04:35:04;99239.94;;;18.25;47.54
67738;BME280;54534;43.612;1.572;2023-03-21T04:37:30;99240.03;;;18.23;47.73
67738;BME280;54534;43.612;1.572;2023-03-21T04:39:58;99242.69;;;18.23;47.61
67738;BME280;54534;43.612;1.572;2023-03-21T04:42:23;99240.16;;;18.22;47.57
67738;BME280;54534;43.612;1.572;2023-03-21T04:44:48;99246.34;;;18.22;47.91
67738;BME280;54534;43.612;1.572;2023-03-21T04:47:14;99245.50;;;18.22;47.85
67738;BME280;54534;43.612;1.572;2023-03-21T04:49:41;99245.50;;;18.22;47.74
67738;BME280;54534;43.612;1.572;2023-03-21T04:52:07;99250.94;;;18.20;47.60
67738;BME280;54534;43.612;1.572;2023-03-21T04:54:32;99260.72;;;18.20;48.17
67738;BME280;54534;43.612;1.572;2023-03-21T04:56:58;99254.53;;;18.19;47.78
67738;BME280;54534;43.612;1.572;2023-03-21T04:59:24;99258.03;;;18.20;47.99
67738;BME280;54534;43.612;1.572;2023-03-21T05:01:49;99255.38;;;18.20;48.05
67738;BME280;54534;43.612;1.572;2023-03-21T05:04:17;99254.66;;;18.18;47.91
67738;BME280;54534;43.612;1.572;2023-03-21T05:06:44;99248.50;;;18.17;47.69
67738;BME280;54534;43.612;1.572;2023-03-21T05:09:10;99242.31;;;18.17;47.64
67738;BME280;54534;43.612;1.572;2023-03-21T05:11:37;99245.94;;;18.16;47.49
67738;BME280;54534;43.612;1.572;2023-03-21T05:14:06;99235.28;;;18.16;47.51
67738;BME280;54534;43.612;1.572;2023-03-21T05:16:31;99233.59;;;18.15;47.88
67738;BME280;54534;43.612;1.572;2023-03-21T05:18:59;99242.44;;;18.15;47.94
67738;BME280;54534;43.612;1.572;2023-03-21T05:21:32;99244.25;;;18.15;47.52
67738;BME280;54534;43.612;1.572;2023-03-21T05:24:06;99244.34;;;18.13;47.56
67738;BME280;54534;43.612;1.572;2023-03-21T05:26:37;99243.53;;;18.12;47.50
67738;BME280;54534;43.612;1.572;2023-03-21T05:29:02;99241.81;;;18.11;47.97
67738;BME280;54534;43.612;1.572;2023-03-21T05:31:27;99236.50;;;18.11;47.97
67738;BME280;54534;43.612;1.572;2023-03-21T05:33:53;99238.31;;;18.11;47.55
67738;BME280;54534;43.612;1.572;2023-03-21T05:36:18;99245.44;;;18.10;47.56
67738;BME280;54534;43.612;1.572;2023-03-21T05:38:43;99262.38;;;18.09;47.38
67738;BME280;54534;43.612;1.572;2023-03-21T05:41:12;99269.38;;;18.10;47.96
67738;BME280;54534;43.612;1.572;2023-03-21T05:43:38;99267.72;;;18.09;47.88
67738;BME280;54534;43.612;1.572;2023-03-21T05:46:04;99271.31;;;18.08;47.75
67738;BME280;54534;43.612;1.572;2023-03-21T05:48:29;99274.97;;;18.07;47.54
67738;BME280;54534;43.612;1.572;2023-03-21T05:50:55;99267.94;;;18.06;47.53
67738;BME280;54534;43.612;1.572;2023-03-21T05:53:20;99274.13;;;18.07;47.59
67738;BME280;54534;43.612;1.572;2023-03-21T05:55:46;99283.91;;;18.06;47.57
67738;BME280;54534;43.612;1.572;2023-03-21T05:58:12;99285.72;;;18.06;47.39
67738;BME280;54534;43.612;1.572;2023-03-21T06:00:37;99284.84;;;18.05;47.83
67738;BME280;54534;43.612;1.572;2023-03-21T06:03:03;99300.81;;;18.05;47.62
67738;BME280;54534;43.612;1.572;2023-03-21T06:05:28;99300.81;;;18.05;47.44
67738;BME280;54534;43.612;1.572;2023-03-21T06:07:53;99307.97;;;18.05;47.70
67738;BME280;54534;43.612;1.572;2023-03-21T06:10:19;99307.13;;;18.04;47.63
67738;BME280;54534;43.612;1.572;2023-03-21T06:12:45;99315.22;;;18.03;47.79
67738;BME280;54534;43.612;1.572;2023-03-21T06:15:10;99317.88;;;18.03;47.92
67738;BME280;54534;43.612;1.572;2023-03-21T06:17:36;99318.84;;;18.01;47.76
67738;BME280;54534;43.612;1.572;2023-03-21T06:20:02;99326.84;;;18.01;47.47
67738;BME280;54534;43.612;1.572;2023-03-21T06:22:32;99328.66;;;18.01;47.67
67738;BME280;54534;43.612;1.572;2023-03-21T06:24:58;99328.66;;;18.01;47.52
67738;BME280;54534;43.612;1.572;2023-03-21T06:27:23;99332.25;;;18.00;47.97
67738;BME280;54534;43.612;1.572;2023-03-21T06:29:48;99338.44;;;18.00;47.76
67738;BME280;54534;43.612;1.572;2023-03-21T06:32:14;99349.06;;;18.00;47.83
67738;BME280;54534;43.612;1.572;2023-03-21T06:34:40;99353.53;;;18.00;48.05
67738;BME280;54534;43.612;1.572;2023-03-21T06:37:06;99346.53;;;17.99;47.88
67738;BME280;54534;43.612;1.572;2023-03-21T06:39:32;99346.53;;;17.99;47.61
67738;BME280;54534;43.612;1.572;2023-03-21T06:41:57;99343.88;;;17.99;47.74
67738;BME280;54534;43.612;1.572;2023-03-21T06:44:23;99351.00;;;17.98;48.20
67738;BME280;54534;43.612;1.572;2023-03-21T06:46:49;99365.25;;;17.97;47.95
67738;BME280;54534;43.612;1.572;2023-03-21T06:49:15;99365.25;;;17.97;47.93
67738;BME280;54534;43.612;1.572;2023-03-21T06:51:40;99360.78;;;17.98;47.74
67738;BME280;54534;43.612;1.572;2023-03-21T06:54:06;99366.13;;;17.98;47.82
67738;BME280;54534;43.612;1.572;2023-03-21T06:56:31;99367.06;;;17.97;47.88
67738;BME280;54534;43.612;1.572;2023-03-21T06:58:57;99367.06;;;17.97;48.00
67738;BME280;54534;43.612;1.572;2023-03-21T07:01:22;99360.94;;;17.96;47.80
67738;BME280;54534;43.612;1.572;2023-03-21T07:03:48;99362.72;;;17.96;47.94
67738;BME280;54534;43.612;1.572;2023-03-21T07:06:14;99360.06;;;17.96;47.83
67738;BME280;54534;43.612;1.572;2023-03-21T07:08:40;99361.88;;;17.95;47.86
67738;BME280;54534;43.612;1.572;2023-03-21T07:11:07;99357.41;;;17.96;47.85
67738;BME280;54534;43.612;1.572;2023-03-21T07:13:33;99353.75;;;17.97;48.28
67738;BME280;54534;43.612;1.572;2023-03-21T07:15:58;99348.44;;;17.97;48.06
67738;BME280;54534;43.612;1.572;2023-03-21T07:18:24;99342.31;;;17.96;47.96
67738;BME280;54534;43.612;1.572;2023-03-21T07:20:50;99345.69;;;17.98;48.28
67738;BME280;54534;43.612;1.572;2023-03-21T07:23:21;99342.91;;;18.00;48.42
67738;BME280;54534;43.612;1.572;2023-03-21T07:25:49;99342.91;;;18.00;47.91
67738;BME280;54534;43.612;1.572;2023-03-21T07:28:15;99337.56;;;18.00;48.07
67738;BME280;54534;43.612;1.572;2023-03-21T07:30:42;99348.97;;;18.02;48.01
67738;BME280;54534;43.612;1.572;2023-03-21T07:33:08;99350.66;;;18.03;48.28
67738;BME280;54534;43.612;1.572;2023-03-21T07:35:34;99345.31;;;18.03;47.89
67738;BME280;54534;43.612;1.572;2023-03-21T07:38:04;99343.41;;;18.05;48.23
67738;BME280;54534;43.612;1.572;2023-03-21T07:40:30;99345.97;;;18.07;47.86
67738;BME280;54534;43.612;1.572;2023-03-21T07:42:56;99339.66;;;18.08;48.23
67738;BME280;54534;43.612;1.572;2023-03-21T07:45:22;99333.25;;;18.10;48.13
67738;BME280;54534;43.612;1.572;2023-03-21T07:47:49;99323.47;;;18.11;47.69
67738;BME280;54534;43.612;1.572;2023-03-21T07:50:16;99326.03;;;18.12;48.00
67738;BME280;54534;43.612;1.572;2023-03-21T07:52:41;99338.34;;;18.14;47.94
67738;BME280;54534;43.612;1.572;2023-03-21T07:55:07;99351.53;;;18.15;47.44
67738;BME280;54534;43.612;1.572;2023-03-21T07:57:33;99352.28;;;18.17;47.58
67738;BME280;54534;43.612;1.572;2023-03-21T07:59:59;99359.28;;;18.18;47.86
67738;BME280;54534;43.612;1.572;2023-03-21T08:02:25;99360.13;;;18.19;47.42
67738;BME280;54534;43.612;1.572;2023-03-21T08:04:51;99376.03;;;18.20;47.31
67738;BME280;54534;43.612;1.572;2023-03-21T08:07:16;99382.16;;;18.21;47.82
67738;BME280;54534;43.612;1.572;2023-03-21T08:09:42;99379.41;;;18.22;47.89
67738;BME280;54534;43.612;1.572;2023-03-21T08:12:08;99385.47;;;18.25;47.79
67738;BME280;54534;43.612;1.572;2023-03-21T08:14:34;99397.81;;;18.26;47.34
67738;BME280;54534;43.612;1.572;2023-03-21T08:17:01;99412.78;;;18.27;47.80
67738;BME280;54534;43.612;1.572;2023-03-21T08:19:26;99414.50;;;18.28;47.51
67738;BME280;54534;43.612;1.572;2023-03-21T08:21:52;99417.03;;;18.29;47.50
67738;BME280;54534;43.612;1.572;2023-03-21T08:24:18;99416.09;;;18.30;47.57
67738;BME280;54534;43.612;1.572;2023-03-21T08:26:43;99422.13;;;18.32;47.38
67738;BME280;54534;43.612;1.572;2023-03-21T08:29:13;99429.25;;;18.32;47.46
67738;BME280;54534;43.612;1.572;2023-03-21T08:31:39;99442.47;;;18.33;47.29
67738;BME280;54534;43.612;1.572;2023-03-21T08:34:05;99445.16;;;18.33;47.51
67738;BME280;54534;43.612;1.572;2023-03-21T08:36:32;99447.69;;;18.35;47.42
67738;BME280;54534;43.612;1.572;2023-03-21T08:38:58;99451.19;;;18.36;47.58
67738;BME280;54534;43.612;1.572;2023-03-21T08:41:33;99456.38;;;18.37;47.40
67738;BME280;54534;43.612;1.572;2023-03-21T08:43:59;99460.75;;;18.38;47.08
67738;BME280;54534;43.612;1.572;2023-03-21T08:46:25;99459.91;;;18.38;47.40
67738;BME280;54534;43.612;1.572;2023-03-21T08:48:51;99457.16;;;18.39;47.32
67738;BME280;54534;43.612;1.572;2023-03-21T08:51:17;99460.53;;;18.41;47.45
67738;BME280;54534;43.612;1.572;2023-03-21T08:53:42;99464.06;;;18.42;47.10
67738;BME280;54534;43.612;1.572;2023-03-21T08:56:09;99452.41;;;18.43;47.44
67738;BME280;54534;43.612;1.572;2023-03-21T08:58:35;99440.81;;;18.44;47.17
67738;BME280;54534;43.612;1.572;2023-03-21T09:01:02;99442.50;;;18.45;47.35
67738;BME280;54534;43.612;1.572;2023-03-21T09:03:27;99442.50;;;18.45;47.06
67738;BME280;54534;43.612;1.572;2023-03-21T09:05:55;99435.34;;;18.45;47.02
67738;BME280;54534;43.612;1.572;2023-03-21T09:08:21;99438.88;;;18.46;46.86
67738;BME280;54534;43.612;1.572;2023-03-21T09:10:52;99449.41;;;18.48;47.13
67738;BME280;54534;43.612;1.572;2023-03-21T09:13:17;99450.25;;;18.48;47.17
67738;BME280;54534;43.612;1.572;2023-03-21T09:15:43;99454.63;;;18.49;47.32
67738;BME280;54534;43.612;1.572;2023-03-21T09:18:10;99444.81;;;18.50;46.82
67738;BME280;54534;43.612;1.572;2023-03-21T09:20:41;99443.97;;;18.49;47.14
67738;BME280;54534;43.612;1.572;2023-03-21T09:23:12;99431.50;;;18.50;46.92
67738;BME280;54534;43.612;1.572;2023-03-21T09:25:39;99425.09;;;18.52;47.17
67738;BME280;54534;43.612;1.572;2023-03-21T09:28:04;99428.72;;;18.51;47.16
67738;BME280;54534;43.612;1.572;2023-03-21T09:30:32;99432.25;;;18.52;46.87
67738;BME280;54534;43.612;1.572;2023-03-21T09:33:02;99434.78;;;18.53;46.75
67738;BME280;54534;43.612;1.572;2023-03-21T09:35:31;99442.66;;;18.55;47.15
67738;BME280;54534;43.612;1.572;2023-03-21T09:37:57;99433.81;;;18.54;46.77
67738;BME280;54534;43.612;1.572;2023-03-21T09:48:59;99443.25;;;18.59;47.11
67738;BME280;54534;43.612;1.572;2023-03-21T09:51:31;99435.25;;;18.59;46.68
67738;BME280;54534;43.612;1.572;2023-03-21T09:54:02;99436.97;;;18.60;46.98
67738;BME280;54534;43.612;1.572;2023-03-21T09:56:30;99436.00;;;18.61;46.74
67738;BME280;54534;43.612;1.572;2023-03-21T09:58:59;99433.22;;;18.62;46.82
67738;BME280;54534;43.612;1.572;2023-03-21T10:01:29;99435.03;;;18.62;46.58
67738;BME280;54534;43.612;1.572;2023-03-21T10:04:11;99426.91;;;18.63;47.04
67738;BME280;54534;43.612;1.572;2023-03-21T10:06:38;99426.91;;;18.63;47.09
67738;BME280;54534;43.612;1.572;2023-03-21T10:09:18;99427.78;;;18.64;46.95
67738;BME280;54534;43.612;1.572;2023-03-21T10:12:05;99425.97;;;18.64;46.72
67738;BME280;54534;43.612;1.572;2023-03-21T10:14:42;99427.66;;;18.65;46.43
67738;BME280;54534;43.612;1.572;2023-03-21T10:17:40;99418.69;;;18.66;46.67
67738;BME280;54534;43.612;1.572;2023-03-21T10:20:23;99420.50;;;18.66;47.00
67738;BME280;54534;43.612;1.572;2023-03-21T10:22:51;99421.34;;;18.66;46.91
67738;BME280;54534;43.612;1.572;2023-03-21T10:25:40;99400.06;;;18.66;46.63
67738;BME280;54534;43.612;1.572;2023-03-21T10:28:10;99406.09;;;18.68;46.66
67738;BME280;54534;43.612;1.572;2023-03-21T10:30:43;99398.97;;;18.69;46.88
67738;BME280;54534;43.612;1.572;2023-03-21T10:33:13;99400.66;;;18.70;47.06
67738;BME280;54534;43.612;1.572;2023-03-21T10:35:42;99404.19;;;18.71;46.91
67738;BME280;54534;43.612;1.572;2023-03-21T10:38:15;99405.88;;;18.72;46.80
67738;BME280;54534;43.612;1.572;2023-03-21T10:40:41;99405.00;;;18.71;46.77
67738;BME280;54534;43.612;1.572;2023-03-21T10:43:32;99400.44;;;18.73;46.95
67738;BME280;54534;43.612;1.572;2023-03-21T10:46:10;99394.34;;;18.71;47.00
67738;BME280;54534;43.612;1.572;2023-03-21T10:48:39;99394.97;;;18.75;46.96
67738;BME280;54534;43.612;1.572;2023-03-21T10:51:07;99402.00;;;18.76;46.86
67738;BME280;54534;43.612;1.572;2023-03-21T10:53:45;99402.88;;;18.76;46.71
67738;BME280;54534;43.612;1.572;2023-03-21T10:56:14;99403.59;;;18.78;46.79
67738;BME280;54534;43.612;1.572;2023-03-21T10:58:46;99400.06;;;18.78;46.72
67738;BME280;54534;43.612;1.572;2023-03-21T11:01:25;99399.13;;;18.79;46.61
67738;BME280;54534;43.612;1.572;2023-03-21T11:03:57;99402.59;;;18.79;46.82
67738;BME280;54534;43.612;1.572;2023-03-21T11:06:29;99399.94;;;18.79;46.98
67738;BME280;54534;43.612;1.572;2023-03-21T11:09:12;99402.50;;;18.81;46.81
67738;BME280;54534;43.612;1.572;2023-03-21T11:12:03;99403.34;;;18.82;46.84
67738;BME280;54534;43.612;1.572;2023-03-21T11:14:39;99406.00;;;18.82;46.73
67738;BME280;54534;43.612;1.572;2023-03-21T11:17:20;99415.69;;;18.83;46.59
67738;BME280;54534;43.612;1.572;2023-03-21T11:19:47;99419.19;;;18.83;46.55
67738;BME280;54534;43.612;1.572;2023-03-21T11:22:13;99417.41;;;18.84;47.01
67738;BME280;54534;43.612;1.572;2023-03-21T11:24:50;99415.44;;;18.86;47.15
67738;BME280;54534;43.612;1.572;2023-03-21T11:27:16;99421.63;;;18.86;46.66
67738;BME280;54534;43.612;1.572;2023-03-21T11:29:48;99414.59;;;18.85;46.89
67738;BME280;54534;43.612;1.572;2023-03-21T11:32:24;99406.38;;;18.88;46.81
67738;BME280;54534;43.612;1.572;2023-03-21T11:34:52;99403.56;;;18.90;46.67
67738;BME280;54534;43.612;1.572;2023-03-21T11:42:51;99398.00;;;18.93;47.28
67738;BME280;54534;43.612;1.572;2023-03-21T11:45:18;99397.06;;;18.94;47.13
67738;BME280;54534;43.612;1.572;2023-03-21T11:47:46;99388.06;;;18.95;47.12
67738;BME280;54534;43.612;1.572;2023-03-21T11:50:17;99392.44;;;18.96;47.31
67738;BME280;54534;43.612;1.572;2023-03-21T11:56:15;99383.34;;;18.99;47.38
67738;BME280;54534;43.612;1.572;2023-03-21T12:07:44;99375.00;;;19.04;47.41
67738;BME280;54534;43.612;1.572;2023-03-21T12:10:31;99374.88;;;19.05;47.17
67738;BME280;54534;43.612;1.572;2023-03-21T12:21:25;99356.81;;;19.09;47.14
67738;BME280;54534;43.612;1.572;2023-03-21T12:24:16;99354.03;;;19.10;47.02
67738;BME280;54534;43.612;1.572;2023-03-21T12:26:57;99361.19;;;19.10;47.29
67738;BME280;54534;43.612;1.572;2023-03-21T12:29:28;99349.53;;;19.11;46.88
67738;BME280;54534;43.612;1.572;2023-03-21T12:32:14;99349.53;;;19.11;46.87
67738;BME280;54534;43.612;1.572;2023-03-21T12:37:52;99340.72;;;19.10;46.86
67738;BME280;54534;43.612;1.572;2023-03-21T12:45:47;99347.63;;;19.13;46.34
67738;BME280;54534;43.612;1.572;2023-03-21T12:50:53;99338.78;;;19.12;46.40
67738;BME280;54534;43.612;1.572;2023-03-21T12:53:48;99331.63;;;19.13;46.76
67738;BME280;54534;43.612;1.572;2023-03-21T12:56:24;99327.00;;;19.15;46.44
67738;BME280;54534;43.612;1.572;2023-03-21T12:58:56;99329.69;;;19.15;46.45
67738;BME280;54534;43.612;1.572;2023-03-21T13:01:23;99324.34;;;19.15;46.73
67738;BME280;54534;43.612;1.572;2023-03-21T13:06:53;99313.69;;;19.15;46.40
67738;BME280;54534;43.612;1.572;2023-03-21T13:09:30;99307.50;;;19.15;46.34
67738;BME280;54534;43.612;1.572;2023-03-21T13:11:58;99304.84;;;19.15;46.37
67738;BME280;54534;43.612;1.572;2023-03-21T13:14:35;99299.50;;;19.15;46.39
67738;BME280;54534;43.612;1.572;2023-03-21T13:17:09;99303.97;;;19.14;46.39
67738;BME280;54534;43.612;1.572;2023-03-21T13:19:49;99303.97;;;19.14;46.01
67738;BME280;54534;43.612;1.572;2023-03-21T13:32:37;99294.41;;;19.11;46.20
67738;BME280;54534;43.612;1.572;2023-03-21T13:37:53;99286.56;;;19.10;46.05
67738;BME280;54534;43.612;1.572;2023-03-21T13:40:27;99287.41;;;19.10;45.99
67738;BME280;54534;43.612;1.572;2023-03-21T13:42:55;99285.56;;;19.11;45.97
67738;BME280;54534;43.612;1.572;2023-03-21T13:45:27;99275.06;;;19.09;45.69
67738;BME280;54534;43.612;1.572;2023-03-21T13:47:59;99276.88;;;19.09;45.55
67738;BME280;54534;43.612;1.572;2023-03-21T13:50:51;99276.00;;;19.08;45.64
67738;BME280;54534;43.612;1.572;2023-03-21T13:53:23;99280.53;;;19.08;45.79
67738;BME280;54534;43.612;1.572;2023-03-21T13:56:18;99261.88;;;19.08;45.43
67738;BME280;54534;43.612;1.572;2023-03-21T14:04:11;99268.28;;;19.05;45.62
67738;BME280;54534;43.612;1.572;2023-03-21T14:09:21;99266.59;;;19.04;45.58
67738;BME280;54534;43.612;1.572;2023-03-21T14:11:50;99260.41;;;19.04;45.50
67738;BME280;54534;43.612;1.572;2023-03-21T14:14:17;99268.41;;;19.04;45.43
67738;BME280;54534;43.612;1.572;2023-03-21T14:16:43;99259.56;;;19.03;45.45
67738;BME280;54534;43.612;1.572;2023-03-21T14:19:09;99264.06;;;19.03;45.28
67738;BME280;54534;43.612;1.572;2023-03-21T14:21:36;99264.06;;;19.03;45.38
67738;BME280;54534;43.612;1.572;2023-03-21T14:24:10;99264.88;;;19.03;45.53
67738;BME280;54534;43.612;1.572;2023-03-21T14:26:42;99258.72;;;19.03;45.37
67738;BME280;54534;43.612;1.572;2023-03-21T14:29:18;99257.88;;;19.02;45.04
67738;BME280;54534;43.612;1.572;2023-03-21T14:31:46;99253.41;;;19.03;45.19
67738;BME280;54534;43.612;1.572;2023-03-21T14:34:13;99258.84;;;19.01;45.06
67738;BME280;54534;43.612;1.572;2023-03-21T14:36:41;99254.34;;;19.01;45.18
67738;BME280;54534;43.612;1.572;2023-03-21T14:41:50;99251.69;;;19.01;44.86
67738;BME280;54534;43.612;1.572;2023-03-21T14:46:42;99250.84;;;19.01;45.14
67738;BME280;54534;43.612;1.572;2023-03-21T14:49:28;99251.69;;;19.01;45.23
67738;BME280;54534;43.612;1.572;2023-03-21T14:52:02;99243.00;;;18.99;44.99
67738;BME280;54534;43.612;1.572;2023-03-21T14:54:28;99243.84;;;19.00;44.71
67738;BME280;54534;43.612;1.572;2023-03-21T14:57:04;99239.34;;;19.00;44.99
67738;BME280;54534;43.612;1.572;2023-03-21T14:59:34;99238.63;;;18.98;45.41
67738;BME280;54534;43.612;1.572;2023-03-21T15:02:04;99237.66;;;18.99;44.96